Time;durP1;ratioP1;P1;durP2;ratioP2;P2;SDS_P1;SDS_P2;PMS_P1;PMS_P2;Temp;Humidity;BMP_temperature;BMP_pressure;BME280_temperature;BME280_humidity;BME280_pressure;Samples;Min_cycle;Max_cycle;Signal;HPM_P1;HPM_P2
2021/01/29 00:00:56;;;;;;;70.63;34.07;;;;;;;;;;5013901;28;20210;-74
2021/01/29 00:03:40;;;;;;;82.83;37.10;;;;;;;;;;5014233;28;20222;-74
2021/01/29 00:06:26;;;;;;;66.17;33.37;;;;;;;;;;5013401;28;20261;-74
2021/01/29 00:09:10;;;;;;;71.80;35.07;;;;;;;;;;5013391;28;20635;-74
2021/01/29 00:11:55;;;;;;;77.17;36.27;;;;;;;;;;5014018;28;20559;-73
2021/01/29 00:14:39;;;;;;;81.80;36.87;;;;;;;;;;5013883;28;20611;-73
2021/01/29 00:17:23;;;;;;;78.60;36.03;;;;;;;;;;5013584;28;20571;-74
2021/01/29 00:20:10;;;;;;;81.00;36.03;;;;;;;;;;5012828;28;20210;-73
2021/01/29 00:22:56;;;;;;;93.70;38.43;;;;;;;;;;5014044;28;20203;-73
2021/01/29 00:25:43;;;;;;;104.97;41.10;;;;;;;;;;5012920;28;20719;-73
2021/01/29 00:28:27;;;;;;;93.80;40.03;;;;;;;;;;5014106;28;20659;-73
2021/01/29 00:31:12;;;;;;;122.82;47.25;;;;;;;;;;5013533;28;20451;-73
2021/01/29 00:33:56;;;;;;;135.13;46.57;;;;;;;;;;5013561;28;20568;-73
2021/01/29 00:36:41;;;;;;;108.43;42.63;;;;;;;;;;5012454;28;20238;-72
2021/01/29 00:39:26;;;;;;;118.67;43.37;;;;;;;;;;5013637;28;20202;-73
2021/01/29 00:42:11;;;;;;;143.63;46.43;;;;;;;;;;5013582;28;20602;-73
2021/01/29 00:44:55;;;;;;;159.30;46.13;;;;;;;;;;5012427;28;20934;-73
2021/01/29 00:47:40;;;;;;;190.47;49.43;;;;;;;;;;5013013;28;20215;-73
2021/01/29 00:50:24;;;;;;;146.33;44.87;;;;;;;;;;5013423;28;20573;-73
2021/01/29 00:53:09;;;;;;;176.27;51.00;;;;;;;;;;5012329;28;20246;-73
2021/01/29 00:55:54;;;;;;;187.67;49.93;;;;;;;;;;5012833;28;20258;-73
2021/01/29 00:58:39;;;;;;;205.23;52.53;;;;;;;;;;5012389;28;20230;-73
2021/01/29 01:01:23;;;;;;;233.57;55.60;;;;;;;;;;5013091;28;20234;-74
2021/01/29 01:04:08;;;;;;;223.73;55.43;;;;;;;;;;5013376;28;20764;-73
2021/01/29 01:06:53;;;;;;;245.80;56.10;;;;;;;;;;5011718;28;20262;-73
2021/01/29 01:09:37;;;;;;;330.95;85.53;;;;;;;;;;4992448;28;20405;-73
2021/01/29 01:12:23;;;;;;;311.63;71.40;;;;;;;;;;4993153;28;20332;-73
2021/01/29 01:15:09;;;;;;;443.43;73.20;;;;;;;;;;4996221;28;20306;-74
2021/01/29 01:17:54;;;;;;;303.50;65.63;;;;;;;;;;5012225;28;20211;-74
2021/01/29 01:20:39;;;;;;;271.53;61.23;;;;;;;;;;5012908;28;20270;-74
2021/01/29 01:23:23;;;;;;;313.03;63.80;;;;;;;;;;5012754;28;20681;-73
2021/01/29 01:26:08;;;;;;;319.03;65.23;;;;;;;;;;5011556;28;20226;-73
2021/01/29 01:28:53;;;;;;;285.73;60.90;;;;;;;;;;5012813;28;20217;-74
2021/01/29 01:31:38;;;;;;;297.33;60.80;;;;;;;;;;5012338;28;20207;-74
2021/01/29 01:34:22;;;;;;;368.93;63.97;;;;;;;;;;5012561;28;20254;-74
2021/01/29 01:37:07;;;;;;;304.53;61.77;;;;;;;;;;5011102;28;20222;-73
2021/01/29 01:39:51;;;;;;;339.17;66.60;;;;;;;;;;5012397;28;20294;-73
2021/01/29 01:42:36;;;;;;;307.67;60.83;;;;;;;;;;5012549;28;20210;-74
2021/01/29 01:45:41;;;;;;;316.60;59.07;;;;;;;;;;5012237;28;20270;-74
2021/01/29 01:48:33;;;;;;;209.87;54.07;;;;;;;;;;5000012;28;20301;-74
2021/01/29 01:51:23;;;;;;;282.10;59.30;;;;;;;;;;5012237;28;20223;-74
2021/01/29 01:54:13;;;;;;;356.83;65.73;;;;;;;;;;5012083;28;20262;-74
2021/01/29 01:56:58;;;;;;;220.70;54.07;;;;;;;;;;5011979;28;20223;-74
2021/01/29 01:59:44;;;;;;;248.23;61.27;;;;;;;;;;5012134;28;20298;-74
2021/01/29 02:02:31;;;;;;;235.17;55.00;;;;;;;;;;5012026;28;20242;-74
2021/01/29 02:05:19;;;;;;;218.03;56.70;;;;;;;;;;5011925;28;20249;-74
2021/01/29 02:08:05;;;;;;;250.27;58.20;;;;;;;;;;5011108;28;20291;-74
2021/01/29 02:10:50;;;;;;;204.87;53.07;;;;;;;;;;5011954;28;20333;-74
2021/01/29 02:13:35;;;;;;;178.63;52.43;;;;;;;;;;5011912;28;20231;-74
2021/01/29 02:16:22;;;;;;;200.90;54.07;;;;;;;;;;5011369;28;20911;-74
2021/01/29 02:19:33;;;;;;;246.30;59.07;;;;;;;;;;5011832;28;20257;-74
2021/01/29 02:22:50;;;;;;;190.43;53.10;;;;;;;;;;4992845;28;20206;-74
2021/01/29 02:25:58;;;;;;;145.93;45.50;;;;;;;;;;5011602;28;20281;-74
2021/01/29 02:28:54;;;;;;;163.80;50.80;;;;;;;;;;5011734;28;20263;-74
2021/01/29 02:31:47;;;;;;;158.80;48.33;;;;;;;;;;5011598;28;20190;-74
2021/01/29 02:34:45;;;;;;;129.77;44.90;;;;;;;;;;5011286;28;20291;-74
2021/01/29 02:37:54;;;;;;;168.30;50.80;;;;;;;;;;5010795;28;20253;-74
2021/01/29 02:40:40;;;;;;;167.53;48.77;;;;;;;;;;4978771;28;20227;-74
2021/01/29 02:43:36;;;;;;;174.33;51.53;;;;;;;;;;5011646;28;20320;-74
2021/01/29 02:46:27;;;;;;;151.67;47.90;;;;;;;;;;5010727;28;20600;-73
2021/01/29 02:49:18;;;;;;;167.30;49.67;;;;;;;;;;5011358;28;20254;-74
2021/01/29 02:52:08;;;;;;;246.75;66.43;;;;;;;;;;5010742;28;20483;-73
2021/01/29 02:54:55;;;;;;;161.50;52.33;;;;;;;;;;5011194;28;20581;-74
2021/01/29 02:57:42;;;;;;;154.67;50.10;;;;;;;;;;5010880;28;20253;-74
2021/01/29 03:00:30;;;;;;;179.03;51.57;;;;;;;;;;5011140;28;20218;-73
2021/01/29 03:03:18;;;;;;;172.77;52.27;;;;;;;;;;5011281;28;20209;-74
2021/01/29 03:06:06;;;;;;;235.17;55.43;;;;;;;;;;5010522;28;20616;-74
2021/01/29 03:08:53;;;;;;;134.73;49.10;;;;;;;;;;5011086;28;20688;-74
2021/01/29 03:11:41;;;;;;;167.37;51.13;;;;;;;;;;5011260;28;20206;-74
2021/01/29 03:14:29;;;;;;;157.60;50.10;;;;;;;;;;5011011;28;20726;-74
2021/01/29 03:17:14;;;;;;;202.23;53.13;;;;;;;;;;5010612;28;20234;-73
2021/01/29 03:20:01;;;;;;;143.07;49.37;;;;;;;;;;5011158;28;20693;-74
2021/01/29 03:22:49;;;;;;;172.63;52.23;;;;;;;;;;5014759;28;20575;-74
2021/01/29 03:25:36;;;;;;;135.43;45.50;;;;;;;;;;5015018;28;20234;-74
2021/01/29 03:28:22;;;;;;;183.13;51.93;;;;;;;;;;5015097;28;20247;-74
2021/01/29 03:31:09;;;;;;;146.87;46.53;;;;;;;;;;5014915;28;20202;-74
2021/01/29 03:33:57;;;;;;;119.67;46.03;;;;;;;;;;5014773;28;20636;-73
2021/01/29 03:36:44;;;;;;;180.97;50.43;;;;;;;;;;5014154;28;20577;-74
2021/01/29 03:39:31;;;;;;;150.47;48.10;;;;;;;;;;5014784;28;20230;-74
2021/01/29 03:42:19;;;;;;;142.87;47.17;;;;;;;;;;5012964;28;20354;-74
2021/01/29 03:45:10;;;;;;;102.43;42.53;;;;;;;;;;4994747;28;20283;-74
2021/01/29 03:47:58;;;;;;;147.13;47.60;;;;;;;;;;4994205;28;20291;-74
2021/01/29 03:50:46;;;;;;;134.43;44.50;;;;;;;;;;4994807;28;20282;-74
2021/01/29 03:53:35;;;;;;;109.33;42.93;;;;;;;;;;4994731;28;20302;-74
2021/01/29 03:56:32;;;;;;;112.27;44.10;;;;;;;;;;4994002;28;20279;-74
2021/01/29 03:59:21;;;;;;;127.80;44.40;;;;;;;;;;4994763;28;20199;-74
2021/01/29 04:02:10;;;;;;;179.63;49.53;;;;;;;;;;4994783;28;20242;-74
2021/01/29 04:04:58;;;;;;;92.07;38.87;;;;;;;;;;4994617;28;20231;-74
2021/01/29 04:07:47;;;;;;;118.77;42.67;;;;;;;;;;4993851;28;20257;-74
2021/01/29 04:10:32;;;;;;;120.20;41.13;;;;;;;;;;4994559;28;20741;-74
2021/01/29 04:13:19;;;;;;;120.07;44.13;;;;;;;;;;5005745;28;20333;-74
2021/01/29 04:16:06;;;;;;;142.50;43.50;;;;;;;;;;5013529;28;20244;-74
2021/01/29 04:18:51;;;;;;;135.80;42.60;;;;;;;;;;5014034;28;20211;-74
2021/01/29 04:21:37;;;;;;;163.40;47.90;;;;;;;;;;5013884;28;20202;-74
2021/01/29 04:24:24;;;;;;;182.60;71.50;;;;;;;;;;5014051;28;20223;-74
2021/01/29 04:27:10;;;;;;;129.03;45.53;;;;;;;;;;5012510;28;20276;-74
2021/01/29 04:29:56;;;;;;;91.93;38.73;;;;;;;;;;5013575;28;20226;-74
2021/01/29 04:32:42;;;;;;;78.00;36.13;;;;;;;;;;5011585;28;20226;-74
2021/01/29 04:35:28;;;;;;;65.90;33.93;;;;;;;;;;5012402;28;20353;-74
2021/01/29 04:38:15;;;;;;;116.53;42.17;;;;;;;;;;5012492;28;20262;-74
2021/01/29 04:41:03;;;;;;;126.60;42.40;;;;;;;;;;5013522;28;20212;-74
2021/01/29 04:44:02;;;;;;;82.27;36.23;;;;;;;;;;5013601;28;20203;-74
2021/01/29 04:46:57;;;;;;;130.87;42.60;;;;;;;;;;5012770;28;20254;-74
2021/01/29 04:50:02;;;;;;;151.63;45.33;;;;;;;;;;5013433;28;20729;-74
2021/01/29 04:53:15;;;;;;;105.00;39.73;;;;;;;;;;5012994;28;20214;-74
2021/01/29 04:56:18;;;;;;;77.93;35.53;;;;;;;;;;5012823;28;20227;-74
2021/01/29 04:59:21;;;;;;;154.37;45.37;;;;;;;;;;5013237;28;20207;-74
2021/01/29 05:02:19;;;;;;;103.63;37.83;;;;;;;;;;5013164;28;20211;-74
2021/01/29 05:05:19;;;;;;;95.07;37.17;;;;;;;;;;5013068;28;20266;-74
2021/01/29 05:08:09;;;;;;;68.93;33.13;;;;;;;;;;5012448;28;20217;-74
2021/01/29 05:11:24;;;;;;;59.70;32.00;;;;;;;;;;5013265;28;20199;-74
2021/01/29 05:14:27;;;;;;;121.80;40.77;;;;;;;;;;4971816;28;20205;-74
2021/01/29 05:17:37;;;;;;;79.03;34.20;;;;;;;;;;5012419;28;20213;-74
2021/01/29 05:20:32;;;;;;;97.10;37.47;;;;;;;;;;5012771;28;20622;-74
2021/01/29 05:23:29;;;;;;;72.00;34.03;;;;;;;;;;5012716;28;20615;-74
2021/01/29 05:26:40;;;;;;;63.97;31.87;;;;;;;;;;5012038;28;20243;-74
2021/01/29 05:29:31;;;;;;;56.60;30.43;;;;;;;;;;4977444;28;20220;-74
2021/01/29 05:32:25;;;;;;;62.37;29.00;;;;;;;;;;5015855;28;20203;-74
2021/01/29 05:35:27;;;;;;;88.77;32.90;;;;;;;;;;5030052;28;20228;-74
2021/01/29 05:38:21;;;;;;;85.10;35.47;;;;;;;;;;5008855;28;20256;-74
2021/01/29 05:41:18;;;;;;;134.47;43.90;;;;;;;;;;5012220;28;20232;-74
2021/01/29 05:44:17;;;;;;;26.47;17.57;;;;;;;;;;5012024;28;20216;-74
2021/01/29 05:47:10;;;;;;;19.90;15.33;;;;;;;;;;5011666;28;20231;-74
2021/01/29 05:50:01;;;;;;;19.30;14.40;;;;;;;;;;4992656;28;20197;-74
2021/01/29 05:52:52;;;;;;;20.87;16.30;;;;;;;;;;4992242;28;20233;-74
2021/01/29 05:55:47;;;;;;;22.23;16.57;;;;;;;;;;4992223;28;20225;-74
2021/01/29 05:58:57;;;;;;;15.23;12.50;;;;;;;;;;4992650;28;20205;-74
2021/01/29 06:01:50;;;;;;;17.63;13.17;;;;;;;;;;4992427;28;20200;-72
2021/01/29 06:04:43;;;;;;;16.73;12.37;;;;;;;;;;4992375;28;20617;-74
2021/01/29 06:07:32;;;;;;;15.87;12.43;;;;;;;;;;4991694;28;20280;-74
2021/01/29 06:10:31;;;;;;;14.33;11.30;;;;;;;;;;4992612;28;20325;-74
2021/01/29 06:13:31;;;;;;;13.27;10.57;;;;;;;;;;4959488;28;20213;-74
2021/01/29 06:16:25;;;;;;;13.27;11.10;;;;;;;;;;4991469;28;20229;-74
2021/01/29 06:19:34;;;;;;;13.18;11.45;;;;;;;;;;4991939;28;20755;-74
2021/01/29 06:22:29;;;;;;;13.43;10.90;;;;;;;;;;4991831;28;20205;-74
2021/01/29 06:25:30;;;;;;;13.73;11.67;;;;;;;;;;5018294;28;20279;-74
2021/01/29 06:28:34;;;;;;;12.53;11.20;;;;;;;;;;5031186;28;20212;-74
2021/01/29 06:31:34;;;;;;;12.33;11.07;;;;;;;;;;5031442;28;20230;-74
2021/01/29 06:34:27;;;;;;;9.00;8.10;;;;;;;;;;5031230;28;20215;-74
2021/01/29 06:37:16;;;;;;;10.30;9.20;;;;;;;;;;5030766;28;20328;-74
2021/01/29 06:40:04;;;;;;;9.87;8.60;;;;;;;;;;5031234;28;20614;-74
2021/01/29 06:43:03;;;;;;;11.93;8.13;;;;;;;;;;5031222;28;20199;-74
2021/01/29 06:45:53;;;;;;;9.53;7.73;;;;;;;;;;5030882;28;20249;-74
2021/01/29 06:49:03;;;;;;;9.50;8.60;;;;;;;;;;5031052;28;20244;-74
2021/01/29 06:52:06;;;;;;;9.63;7.70;;;;;;;;;;5018226;28;20213;-74
2021/01/29 06:54:57;;;;;;;10.07;7.63;;;;;;;;;;5002786;28;20226;-74
2021/01/29 06:57:51;;;;;;;9.47;8.20;;;;;;;;;;5021935;28;20330;-74
2021/01/29 07:00:39;;;;;;;11.93;8.27;;;;;;;;;;5025194;28;20566;-74
2021/01/29 07:03:45;;;;;;;12.07;8.93;;;;;;;;;;5010997;28;20620;-74
2021/01/29 07:06:37;;;;;;;9.93;8.90;;;;;;;;;;4994809;28;20233;-74
2021/01/29 07:09:31;;;;;;;12.03;9.07;;;;;;;;;;5003210;28;20279;-74
2021/01/29 07:12:21;;;;;;;14.77;10.30;;;;;;;;;;5030904;28;20695;-74
2021/01/29 07:15:10;;;;;;;16.27;10.93;;;;;;;;;;5013172;28;20272;-74
2021/01/29 07:18:06;;;;;;;17.90;11.97;;;;;;;;;;5010581;28;20693;-75
2021/01/29 07:21:03;;;;;;;15.63;11.20;;;;;;;;;;5011182;28;20204;-74
2021/01/29 07:24:06;;;;;;;13.00;10.63;;;;;;;;;;5010936;28;20326;-74
2021/01/29 07:27:00;;;;;;;13.47;10.10;;;;;;;;;;5019056;28;20243;-74
2021/01/29 07:29:49;;;;;;;11.73;10.55;;;;;;;;;;5010023;28;20488;-74
2021/01/29 07:32:42;;;;;;;10.73;8.73;;;;;;;;;;5011017;28;20708;-75
2021/01/29 07:35:30;;;;;;;13.03;7.57;;;;;;;;;;5010843;28;20642;-73
2021/01/29 07:38:20;;;;;;;12.67;6.03;;;;;;;;;;5009454;28;20212;-77
2021/01/29 07:41:11;;;;;;;8.83;6.60;;;;;;;;;;5009992;28;20205;-79
2021/01/29 07:44:18;;;;;;;6.70;5.90;;;;;;;;;;5008804;28;20663;-73
2021/01/29 07:47:20;;;;;;;7.80;6.37;;;;;;;;;;4995333;28;20244;-72
2021/01/29 07:50:14;;;;;;;8.80;6.33;;;;;;;;;;5007260;28;20280;-74
2021/01/29 07:53:05;;;;;;;9.63;6.17;;;;;;;;;;5010727;28;20722;-74
2021/01/29 07:56:12;;;;;;;9.57;7.63;;;;;;;;;;5008632;28;20226;-74
2021/01/29 07:59:04;;;;;;;13.00;9.07;;;;;;;;;;5014919;28;20276;-73
2021/01/29 08:01:53;;;;;;;15.47;10.53;;;;;;;;;;5044920;22;20247;-72
2021/01/29 08:04:44;;;;;;;16.30;11.70;;;;;;;;;;5048144;28;20359;-72
2021/01/29 08:07:31;;;;;;;17.10;14.95;;;;;;;;;;5049964;28;20782;-74
2021/01/29 08:10:29;;;;;;;18.27;13.63;;;;;;;;;;5051584;28;20216;-74
2021/01/29 08:13:16;;;;;;;19.13;15.40;;;;;;;;;;5049768;28;20302;-73
2021/01/29 08:16:09;;;;;;;21.30;15.27;;;;;;;;;;5033176;28;20203;-76
2021/01/29 08:18:56;;;;;;;19.93;11.27;;;;;;;;;;5034149;28;20347;-76
2021/01/29 08:21:59;;;;;;;19.73;9.53;;;;;;;;;;5050770;28;20656;-75
2021/01/29 08:24:53;;;;;;;17.17;7.83;;;;;;;;;;5053507;28;20603;-73
2021/01/29 08:27:48;;;;;;;22.07;10.83;;;;;;;;;;5052774;28;20215;-74
2021/01/29 08:30:43;;;;;;;28.30;14.40;;;;;;;;;;5050309;28;20727;-72
2021/01/29 08:33:53;;;;;;;23.67;10.23;;;;;;;;;;5046525;28;20266;-72
2021/01/29 08:36:43;;;;;;;30.23;9.00;;;;;;;;;;5046968;28;20207;-74
2021/01/29 08:39:30;;;;;;;26.03;10.50;;;;;;;;;;5052032;28;20224;-74
2021/01/29 08:42:20;;;;;;;26.30;8.60;;;;;;;;;;5044868;28;20259;-75
2021/01/29 08:45:15;;;;;;;27.93;8.43;;;;;;;;;;5053133;28;20246;-75
2021/01/29 08:48:07;;;;;;;29.73;8.70;;;;;;;;;;5052371;28;20600;-74
2021/01/29 08:50:57;;;;;;;30.33;8.70;;;;;;;;;;5052831;28;20208;-75
2021/01/29 08:53:57;;;;;;;32.63;9.27;;;;;;;;;;5052667;28;20200;-74
2021/01/29 08:56:45;;;;;;;38.83;9.50;;;;;;;;;;5052745;28;20658;-72
2021/01/29 08:59:33;;;;;;;32.30;9.30;;;;;;;;;;5052601;28;20221;-76
2021/01/29 09:02:21;;;;;;;32.80;8.90;;;;;;;;;;5052792;28;20242;-76
2021/01/29 09:05:07;;;;;;;32.07;8.47;;;;;;;;;;5052593;28;20315;-76
2021/01/29 09:07:56;;;;;;;37.03;9.67;;;;;;;;;;5051938;28;20228;-76
2021/01/29 09:11:04;;;;;;;35.53;10.30;;;;;;;;;;5052612;28;20250;-74
2021/01/29 09:13:54;;;;;;;41.58;12.07;;;;;;;;;;5043421;28;20425;-74
2021/01/29 09:16:41;;;;;;;37.17;9.30;;;;;;;;;;5051953;28;20560;-76
2021/01/29 09:19:26;;;;;;;38.87;9.30;;;;;;;;;;5052221;28;20286;-73
2021/01/29 09:22:18;;;;;;;37.93;8.87;;;;;;;;;;5052351;28;20205;-73
2021/01/29 09:25:09;;;;;;;44.90;9.93;;;;;;;;;;5052539;28;20274;-74
2021/01/29 09:28:01;;;;;;;43.53;9.83;;;;;;;;;;5051640;28;20220;-73
2021/01/29 09:30:49;;;;;;;41.20;9.30;;;;;;;;;;5052558;28;20772;-76
2021/01/29 09:33:36;;;;;;;47.97;9.67;;;;;;;;;;5052214;28;20259;-72
2021/01/29 09:36:22;;;;;;;50.10;9.63;;;;;;;;;;5051460;28;20200;-74
2021/01/29 09:39:12;;;;;;;50.47;9.17;;;;;;;;;;5047806;28;20250;-72
2021/01/29 09:41:58;;;;;;;43.23;8.67;;;;;;;;;;5046990;28;20239;-73
2021/01/29 09:44:45;;;;;;;36.33;8.80;;;;;;;;;;5046213;28;20215;-73
2021/01/29 09:47:32;;;;;;;34.10;8.10;;;;;;;;;;5046691;28;20709;-71
2021/01/29 09:50:19;;;;;;;41.80;9.10;;;;;;;;;;5051885;28;20204;-73
2021/01/29 09:53:21;;;;;;;39.13;8.47;;;;;;;;;;5031717;28;20212;-73
2021/01/29 09:56:08;;;;;;;37.43;8.23;;;;;;;;;;5031384;28;20247;-72
2021/01/29 09:59:16;;;;;;;50.03;9.27;;;;;;;;;;5043234;28;20698;-74
2021/01/29 10:02:07;;;;;;;29.20;6.73;;;;;;;;;;5050453;28;20207;-74
2021/01/29 10:05:00;;;;;;;34.67;7.97;;;;;;;;;;5050420;28;20296;-74
2021/01/29 10:07:53;;;;;;;36.83;8.20;;;;;;;;;;5050832;28;20290;-74
2021/01/29 10:10:42;;;;;;;38.77;8.47;;;;;;;;;;5051590;28;20553;-74
2021/01/29 10:13:34;;;;;;;44.83;8.67;;;;;;;;;;5051409;28;20264;-74
2021/01/29 10:16:24;;;;;;;40.07;8.17;;;;;;;;;;5051262;28;20567;-74
2021/01/29 10:19:15;;;;;;;33.13;7.77;;;;;;;;;;5051035;28;20281;-74
2021/01/29 10:22:07;;;;;;;32.20;7.90;;;;;;;;;;5051609;28;20252;-74
2021/01/29 10:24:58;;;;;;;39.63;8.63;;;;;;;;;;5051376;28;20217;-74
2021/01/29 10:27:46;;;;;;;28.57;6.97;;;;;;;;;;5050540;28;20258;-74
2021/01/29 10:30:34;;;;;;;30.17;7.77;;;;;;;;;;5050955;28;20282;-74
2021/01/29 10:33:20;;;;;;;27.93;7.63;;;;;;;;;;5050816;28;20669;-74
2021/01/29 10:36:06;;;;;;;39.67;7.90;;;;;;;;;;5050476;28;20208;-74
2021/01/29 10:38:54;;;;;;;35.80;7.80;;;;;;;;;;5051090;28;20271;-74
2021/01/29 10:41:42;;;;;;;34.37;7.40;;;;;;;;;;5051183;28;20237;-74
2021/01/29 10:44:29;;;;;;;34.07;8.03;;;;;;;;;;5051007;28;20223;-74
2021/01/29 10:47:17;;;;;;;35.40;8.13;;;;;;;;;;5050293;28;20759;-74
2021/01/29 10:50:08;;;;;;;27.40;6.93;;;;;;;;;;5050686;28;20214;-74
2021/01/29 10:53:00;;;;;;;34.50;8.07;;;;;;;;;;5050894;28;20198;-74
2021/01/29 10:55:52;;;;;;;25.83;7.00;;;;;;;;;;5050528;28;20211;-74
2021/01/29 10:58:48;;;;;;;32.17;8.73;;;;;;;;;;5049463;28;20400;-75
2021/01/29 11:01:35;;;;;;;28.87;7.13;;;;;;;;;;5050675;28;20248;-74
2021/01/29 11:04:21;;;;;;;28.77;6.80;;;;;;;;;;5050612;28;20637;-75
2021/01/29 11:07:06;;;;;;;31.87;7.20;;;;;;;;;;5050270;28;20750;-73
2021/01/29 11:09:56;;;;;;;32.73;7.37;;;;;;;;;;5048680;28;20331;-73
2021/01/29 11:12:42;;;;;;;30.70;7.27;;;;;;;;;;5050598;28;20295;-76
2021/01/29 11:15:35;;;;;;;32.07;7.13;;;;;;;;;;5050674;28;20329;-73
2021/01/29 11:18:22;;;;;;;28.37;6.80;;;;;;;;;;5050457;28;20202;-75
2021/01/29 11:21:12;;;;;;;35.77;7.77;;;;;;;;;;5050660;28;20788;-76
2021/01/29 11:24:03;;;;;;;26.57;6.77;;;;;;;;;;5050465;28;20249;-74
2021/01/29 11:26:53;;;;;;;20.50;6.67;;;;;;;;;;5049657;28;20762;-74
2021/01/29 11:29:40;;;;;;;27.20;7.03;;;;;;;;;;5050540;28;20209;-71
2021/01/29 11:32:27;;;;;;;32.40;7.77;;;;;;;;;;5050346;28;20205;-72
2021/01/29 11:35:20;;;;;;;23.57;6.37;;;;;;;;;;5050355;28;20313;-73
2021/01/29 11:38:19;;;;;;;30.33;6.97;;;;;;;;;;5040378;28;20199;-76
2021/01/29 11:41:09;;;;;;;25.90;6.40;;;;;;;;;;5030091;28;20237;-76
2021/01/29 11:43:58;;;;;;;26.90;7.17;;;;;;;;;;5034238;28;20265;-76
2021/01/29 11:46:48;;;;;;;27.87;6.63;;;;;;;;;;5033439;28;20218;-76
2021/01/29 11:49:35;;;;;;;26.07;6.73;;;;;;;;;;5034449;28;20277;-76
2021/01/29 11:52:23;;;;;;;22.93;6.40;;;;;;;;;;5034440;28;20465;-76
2021/01/29 11:55:11;;;;;;;21.27;6.43;;;;;;;;;;5034222;28;20578;-76
2021/01/29 11:58:00;;;;;;;23.90;6.30;;;;;;;;;;5033705;28;20716;-76
2021/01/29 12:00:47;;;;;;;22.77;6.00;;;;;;;;;;5034135;28;20209;-76
2021/01/29 12:03:34;;;;;;;24.20;6.20;;;;;;;;;;5034131;28;20226;-76
2021/01/29 12:06:21;;;;;;;24.50;6.27;;;;;;;;;;5033755;28;20198;-76
2021/01/29 12:09:07;;;;;;;26.40;6.67;;;;;;;;;;5034200;28;20731;-76
2021/01/29 12:11:59;;;;;;;24.63;6.93;;;;;;;;;;5033720;28;20260;-76
2021/01/29 12:14:54;;;;;;;22.87;6.63;;;;;;;;;;5033826;28;20226;-76
2021/01/29 12:17:39;;;;;;;28.80;7.10;;;;;;;;;;5033375;28;20272;-76
2021/01/29 12:20:25;;;;;;;27.83;6.93;;;;;;;;;;5033713;28;20241;-75
2021/01/29 12:23:13;;;;;;;28.43;7.73;;;;;;;;;;5033648;28;20249;-76
2021/01/29 12:26:00;;;;;;;26.63;7.50;;;;;;;;;;5033150;28;20202;-75
2021/01/29 12:28:59;;;;;;;30.30;7.30;;;;;;;;;;5033754;28;20348;-76
2021/01/29 12:31:48;;;;;;;27.83;7.10;;;;;;;;;;5033593;28;20214;-75
2021/01/29 12:34:35;;;;;;;30.50;6.77;;;;;;;;;;5043999;28;20279;-75
2021/01/29 12:37:22;;;;;;;26.03;6.93;;;;;;;;;;5050571;28;20585;-75
2021/01/29 12:40:11;;;;;;;22.30;6.90;;;;;;;;;;5052794;28;20213;-72
2021/01/29 12:42:57;;;;;;;32.30;7.17;;;;;;;;;;5052980;28;20630;-76
2021/01/29 12:45:48;;;;;;;27.17;7.50;;;;;;;;;;5053110;28;20668;-76
2021/01/29 12:48:40;;;;;;;27.27;7.33;;;;;;;;;;5052815;28;20288;-76
2021/01/29 12:51:28;;;;;;;26.57;6.30;;;;;;;;;;5053013;28;20718;-77
2021/01/29 12:54:17;;;;;;;25.90;8.77;;;;;;;;;;5051343;28;20718;-75
2021/01/29 12:57:05;;;;;;;29.33;7.27;;;;;;;;;;5036018;28;20221;-72
2021/01/29 12:59:50;;;;;;;26.60;6.50;;;;;;;;;;5050030;28;20829;-75
2021/01/29 13:02:53;;;;;;;23.90;6.50;;;;;;;;;;5052805;28;20597;-76
2021/01/29 13:05:45;;;;;;;28.90;7.07;;;;;;;;;;5053021;28;20201;-74
2021/01/29 13:08:48;;;;;;;25.17;6.97;;;;;;;;;;5052483;28;20383;-75
2021/01/29 13:11:37;;;;;;;21.87;6.53;;;;;;;;;;5052630;28;20232;-75
2021/01/29 13:14:28;;;;;;;21.13;6.40;;;;;;;;;;5052486;28;20226;-73
2021/01/29 13:17:21;;;;;;;29.88;7.65;;;;;;;;;;5050874;28;20409;-73
2021/01/29 13:20:09;;;;;;;26.30;6.60;;;;;;;;;;5052409;28;20260;-73
2021/01/29 13:22:55;;;;;;;22.77;6.30;;;;;;;;;;5052423;28;20205;-74
2021/01/29 13:25:53;;;;;;;20.67;5.57;;;;;;;;;;5052317;28;20252;-76
2021/01/29 13:28:38;;;;;;;21.40;6.23;;;;;;;;;;5052101;28;20584;-76
2021/01/29 13:31:26;;;;;;;18.90;5.20;;;;;;;;;;5052264;28;20212;-73
2021/01/29 13:34:12;;;;;;;16.40;5.33;;;;;;;;;;5046456;28;20641;-74
2021/01/29 13:36:59;;;;;;;18.37;5.00;;;;;;;;;;5046419;28;20421;-75
2021/01/29 13:39:44;;;;;;;30.23;6.73;;;;;;;;;;5046760;28;20607;-76
2021/01/29 13:42:30;;;;;;;21.47;6.37;;;;;;;;;;5046493;28;20275;-76
2021/01/29 13:45:16;;;;;;;24.50;6.90;;;;;;;;;;5046572;28;20205;-72
2021/01/29 13:48:02;;;;;;;22.00;5.83;;;;;;;;;;5045615;28;20309;-74
2021/01/29 13:50:48;;;;;;;17.33;5.33;;;;;;;;;;5046517;28;20213;-74
2021/01/29 13:53:34;;;;;;;17.33;4.90;;;;;;;;;;5046337;28;20272;-76
2021/01/29 13:56:34;;;;;;;19.80;6.50;;;;;;;;;;5046185;28;20286;-76
2021/01/29 13:59:22;;;;;;;19.43;5.37;;;;;;;;;;5046523;28;20248;-76
2021/01/29 14:02:22;;;;;;;22.60;5.43;;;;;;;;;;5046439;28;20723;-73
2021/01/29 14:05:13;;;;;;;21.67;5.60;;;;;;;;;;5045204;28;20660;-75
2021/01/29 14:08:00;;;;;;;17.97;5.27;;;;;;;;;;5045404;28;20236;-72
2021/01/29 14:10:46;;;;;;;22.33;6.13;;;;;;;;;;5045895;28;20259;-73
2021/01/29 14:13:39;;;;;;;26.57;6.80;;;;;;;;;;5045814;28;20224;-73
2021/01/29 14:16:29;;;;;;;22.93;6.07;;;;;;;;;;5045348;28;20209;-75
2021/01/29 14:19:17;;;;;;;29.17;6.93;;;;;;;;;;5045705;28;20210;-77
2021/01/29 14:22:06;;;;;;;20.85;6.72;;;;;;;;;;5045226;28;20753;-77
2021/01/29 14:25:02;;;;;;;22.87;5.70;;;;;;;;;;5045490;28;20264;-76
2021/01/29 14:27:51;;;;;;;20.00;5.93;;;;;;;;;;5045235;28;20220;-75
2021/01/29 14:30:42;;;;;;;30.50;6.87;;;;;;;;;;5049113;28;20313;-77
2021/01/29 14:33:30;;;;;;;21.20;5.80;;;;;;;;;;5051002;28;20393;-75
2021/01/29 14:36:16;;;;;;;22.47;6.23;;;;;;;;;;5050648;28;20247;-75
2021/01/29 14:39:14;;;;;;;23.50;6.77;;;;;;;;;;5050928;28;20251;-76
2021/01/29 14:42:04;;;;;;;20.77;6.50;;;;;;;;;;5050924;28;20198;-76
2021/01/29 14:45:01;;;;;;;22.33;6.03;;;;;;;;;;5050621;28;20233;-77
2021/01/29 14:47:56;;;;;;;23.63;6.23;;;;;;;;;;5050074;28;20815;-77
2021/01/29 14:51:00;;;;;;;23.30;6.30;;;;;;;;;;5050918;28;20256;-76
2021/01/29 14:53:47;;;;;;;21.17;6.00;;;;;;;;;;5050521;28;20399;-75
2021/01/29 14:56:36;;;;;;;24.97;6.53;;;;;;;;;;5051041;28;20232;-72
2021/01/29 14:59:23;;;;;;;24.25;7.00;;;;;;;;;;5050802;28;20574;-74
2021/01/29 15:02:09;;;;;;;22.60;5.70;;;;;;;;;;5050683;28;20215;-76
2021/01/29 15:04:55;;;;;;;22.43;5.80;;;;;;;;;;5050697;28;20651;-75
2021/01/29 15:07:42;;;;;;;21.73;5.43;;;;;;;;;;5050032;28;20317;-74
2021/01/29 15:10:27;;;;;;;19.67;5.90;;;;;;;;;;5050750;28;20204;-74
2021/01/29 15:13:15;;;;;;;16.73;5.43;;;;;;;;;;5050639;28;20288;-74
2021/01/29 15:15:59;;;;;;;18.43;5.70;;;;;;;;;;5050079;28;20279;-75
2021/01/29 15:18:44;;;;;;;27.07;5.97;;;;;;;;;;5054237;28;20201;-74
2021/01/29 15:21:38;;;;;;;19.13;5.30;;;;;;;;;;5054827;28;20693;-75
2021/01/29 15:24:28;;;;;;;18.47;5.80;;;;;;;;;;5054214;28;20310;-76
2021/01/29 15:27:26;;;;;;;22.80;5.77;;;;;;;;;;5054148;28;20221;-76
2021/01/29 15:30:13;;;;;;;18.17;4.97;;;;;;;;;;5054434;28;20196;-76
2021/01/29 15:32:58;;;;;;;22.03;6.27;;;;;;;;;;5054431;28;20216;-77
2021/01/29 15:35:43;;;;;;;21.70;5.40;;;;;;;;;;5054325;28;20290;-77
2021/01/29 15:38:39;;;;;;;23.93;5.43;;;;;;;;;;5054395;28;20204;-77
2021/01/29 15:41:25;;;;;;;18.93;5.37;;;;;;;;;;5054124;28;20271;-76
2021/01/29 15:44:11;;;;;;;19.47;5.80;;;;;;;;;;5053985;28;20252;-73
2021/01/29 15:46:57;;;;;;;17.47;5.23;;;;;;;;;;5053496;28;20683;-75
2021/01/29 15:49:43;;;;;;;20.30;5.40;;;;;;;;;;5053952;28;20213;-74
2021/01/29 15:52:42;;;;;;;18.60;5.60;;;;;;;;;;5054260;28;20225;-74
2021/01/29 15:55:36;;;;;;;20.23;5.50;;;;;;;;;;5054053;28;20193;-77
2021/01/29 15:58:20;;;;;;;21.57;5.60;;;;;;;;;;5054310;28;20715;-79
2021/01/29 16:01:05;;;;;;;22.63;6.53;;;;;;;;;;5053092;28;20420;-79
2021/01/29 16:03:50;;;;;;;24.63;5.97;;;;;;;;;;5053754;28;20351;-79
2021/01/29 16:06:40;;;;;;;21.13;6.10;;;;;;;;;;5053228;28;20255;-80
2021/01/29 16:09:26;;;;;;;23.47;6.17;;;;;;;;;;5053807;28;20388;-79
2021/01/29 16:12:38;;;;;;;17.73;5.33;;;;;;;;;;5053377;28;20248;-72
2021/01/29 16:15:23;;;;;;;18.30;5.40;;;;;;;;;;5016420;28;20726;-75
2021/01/29 16:18:13;;;;;;;21.63;5.40;;;;;;;;;;5053092;28;20196;-74
2021/01/29 16:21:03;;;;;;;20.57;5.57;;;;;;;;;;5053357;28;20201;-79
2021/01/29 16:23:48;;;;;;;20.33;5.93;;;;;;;;;;5053397;28;20304;-78
2021/01/29 16:26:34;;;;;;;20.50;5.57;;;;;;;;;;5052687;28;20263;-76
2021/01/29 16:29:23;;;;;;;21.20;5.60;;;;;;;;;;5053212;28;20204;-72
2021/01/29 16:32:07;;;;;;;19.40;5.70;;;;;;;;;;5053272;28;20213;-70
2021/01/29 16:34:52;;;;;;;19.33;5.47;;;;;;;;;;5053185;28;20574;-73
2021/01/29 16:37:38;;;;;;;20.10;5.90;;;;;;;;;;5052968;28;20295;-73